Time;durP1;ratioP1;P1;durP2;ratioP2;P2;SDS_P1;SDS_P2;PMS_P1;PMS_P2;Temp;Humidity;BMP_temperature;BMP_pressure;BME280_temperature;BME280_humidity;BME280_pressure;Samples;Min_cycle;Max_cycle;Signal;HPM_P1;HPM_P2
2022/02/16 00:05:36;;;;;;;321.93;136.77;;;;;;;-0.22;79.97;98855.45;4226579;83;21527;-88
2022/02/16 00:11:36;;;;;;;332.75;139.18;;;;;;;-0.22;79.97;98855.45;4238596;83;21007;-90
2022/02/16 00:17:37;;;;;;;254.75;108.40;;;;;;;-0.41;79.95;98827.95;4213320;82;21117;-88
2022/02/16 00:23:39;;;;;;;232.18;101.85;;;;;;;-0.39;79.87;98816.31;4237606;82;21020;-88
2022/02/16 00:29:41;;;;;;;182.97;78.83;;;;;;;-0.39;79.87;98816.31;4237645;82;21391;-88
2022/02/16 00:35:42;;;;;;;216.10;97.82;;;;;;;-0.35;80.96;98827.52;4230302;82;21034;-88
2022/02/16 00:41:44;;;;;;;243.75;103.58;;;;;;;-0.46;80.16;98801.19;4254759;82;21867;-88
2022/02/16 00:47:46;;;;;;;240.77;105.25;;;;;;;-0.22;81.57;98834.70;4231931;82;22103;-88
2022/02/16 00:53:48;;;;;;;240.92;107.63;;;;;;;-0.14;80.36;98828.58;4232080;82;21025;-89
2022/02/16 00:59:49;;;;;;;185.73;84.62;;;;;;;-0.04;81.05;98824.83;4241907;82;22248;-88
2022/02/16 01:05:51;;;;;;;204.55;94.77;;;;;;;-0.08;81.37;98815.23;4242219;82;21042;-88
2022/02/16 01:11:54;;;;;;;204.45;93.07;;;;;;;0.02;82.08;98810.70;4228908;82;21014;-88
2022/02/16 01:17:57;;;;;;;203.83;93.58;;;;;;;0.12;81.30;98800.98;4234350;82;21064;-88
2022/02/16 01:24:04;;;;;;;;;;;;;;;0.11;81.21;98798.83;4242545;82;21600;-88
2022/02/16 01:30:07;;;;;;;209.98;100.80;;;;;;;0.16;81.48;98793.31;4230853;83;20557;-89
2022/02/16 01:36:16;;;;;;;247.35;114.45;;;;;;;0.26;81.59;98782.27;4231970;82;21601;-88
2022/02/16 01:42:20;;;;;;;225.40;101.40;;;;;;;0.40;82.21;98776.21;4251965;82;21276;-88
2022/02/16 01:48:24;;;;;;;248.78;114.70;;;;;;;0.40;81.67;98770.02;4242049;82;21009;-89
2022/02/16 01:54:26;;;;;;;211.25;104.10;;;;;;;0.44;82.64;98764.27;4232822;82;21010;-88
2022/02/16 02:00:28;;;;;;;212.25;98.80;;;;;;;0.49;82.30;98750.63;4229486;82;21062;-89
2022/02/16 02:06:31;;;;;;;216.75;99.87;;;;;;;0.50;82.23;98744.16;4236380;82;21032;-88
2022/02/16 02:12:35;;;;;;;226.25;105.50;;;;;;;0.58;82.91;98744.72;4237356;82;21492;-88
2022/02/16 02:18:37;;;;;;;246.50;112.77;;;;;;;0.46;82.90;98719.75;4099982;82;21035;-88
2022/02/16 02:24:39;;;;;;;234.75;110.80;;;;;;;0.61;82.67;98734.09;4063816;86;22030;-89
2022/02/16 02:30:41;;;;;;;233.13;109.80;;;;;;;0.53;83.00;98723.32;4077460;85;21773;-89
2022/02/16 02:36:42;;;;;;;235.85;110.42;;;;;;;0.45;83.07;98707.95;4050962;86;21055;-88
2022/02/16 02:42:43;;;;;;;233.02;114.67;;;;;;;0.45;82.98;98713.33;4072027;86;21892;-88
2022/02/16 02:48:46;;;;;;;223.18;107.40;;;;;;;0.34;83.17;98710.16;4046904;86;21128;-88
2022/02/16 02:54:48;;;;;;;211.40;102.38;;;;;;;0.36;83.72;98702.53;4062844;86;21059;-88
2022/02/16 03:00:50;;;;;;;224.98;106.40;;;;;;;0.42;82.98;98698.61;4067501;86;21142;-88
2022/02/16 03:06:52;;;;;;;211.07;101.10;;;;;;;0.50;83.94;98705.10;4072527;86;21706;-89
2022/02/16 03:12:53;;;;;;;208.07;102.35;;;;;;;0.55;84.49;98694.95;4066418;86;21595;-89
2022/02/16 03:18:56;;;;;;;223.22;103.58;;;;;;;0.57;84.30;98698.67;4140386;84;21075;-88
2022/02/16 03:24:59;;;;;;;200.62;93.87;;;;;;;0.61;84.42;98700.41;4146868;84;21094;-89
2022/02/16 03:31:01;;;;;;;226.82;105.12;;;;;;;0.63;84.40;98703.59;4159565;84;21015;-90
2022/02/16 03:37:04;;;;;;;218.85;105.27;;;;;;;0.69;84.46;98709.05;4152347;84;21079;-88
2022/02/16 03:43:07;;;;;;;216.02;101.70;;;;;;;0.71;84.46;98712.78;4154525;82;21008;-89
2022/02/16 03:49:09;;;;;;;192.82;93.85;;;;;;;0.67;84.61;98716.68;4139089;84;21515;-88
2022/02/16 03:55:11;;;;;;;177.12;87.97;;;;;;;0.69;84.85;98713.09;4179609;81;57298;-88
2022/02/16 04:01:13;;;;;;;193.62;93.35;;;;;;;0.73;84.65;98732.12;4284130;81;21102;-89
2022/02/16 04:07:15;;;;;;;207.20;98.85;;;;;;;0.74;84.81;98721.02;4291979;81;21093;-89
2022/02/16 04:13:16;;;;;;;200.25;96.90;;;;;;;0.79;84.44;98715.48;4303626;81;21591;-89
2022/02/16 04:19:19;;;;;;;220.93;104.70;;;;;;;0.73;84.80;98712.72;4277459;81;21154;-88
2022/02/16 04:25:21;;;;;;;214.90;102.25;;;;;;;0.75;84.97;98720.48;4274788;81;21098;-88
2022/02/16 04:31:23;;;;;;;210.72;101.18;;;;;;;0.81;85.38;98710.58;4271946;82;21023;-89
2022/02/16 04:37:27;;;;;;;208.55;104.45;;;;;;;0.90;85.34;98701.12;4191148;83;21048;-89
2022/02/16 04:43:29;;;;;;;198.00;97.80;;;;;;;0.82;85.26;98709.45;4112970;85;21655;-89
2022/02/16 04:49:32;;;;;;;214.40;101.62;;;;;;;0.85;84.92;98703.97;4198330;83;21068;-88
2022/02/16 04:55:33;;;;;;;196.72;94.95;;;;;;;0.92;85.23;98697.02;4197521;83;20991;-89
2022/02/16 05:01:37;;;;;;;202.62;99.85;;;;;;;0.97;85.54;98696.05;4155419;84;21073;-88
2022/02/16 05:07:39;;;;;;;203.92;97.88;;;;;;;1.03;85.19;98689.38;4136035;84;21572;-90
2022/02/16 05:13:40;;;;;;;175.15;86.25;;;;;;;0.96;85.53;98693.91;4247573;81;21040;-89
2022/02/16 05:19:43;;;;;;;209.60;95.32;;;;;;;1.02;85.14;98697.21;4242052;81;21512;-89
2022/02/16 05:25:44;;;;;;;254.07;106.72;;;;;;;1.05;86.23;98693.91;4233357;83;21339;-90
2022/02/16 05:31:47;;;;;;;203.25;97.33;;;;;;;1.14;86.51;98690.63;4227641;83;21010;-90
2022/02/16 05:37:48;;;;;;;198.15;95.28;;;;;;;1.17;86.11;98689.98;4231661;82;21038;-90
2022/02/16 05:43:51;;;;;;;204.28;98.55;;;;;;;1.16;86.89;98688.41;4235565;82;21019;-90
2022/02/16 05:49:53;;;;;;;208.30;98.12;;;;;;;1.20;87.18;98695.54;4238506;82;21530;-91
2022/02/16 05:55:55;;;;;;;222.17;108.37;;;;;;;1.22;87.10;98683.86;4231683;82;21053;-90
2022/02/16 06:02:00;;;;;;;233.72;114.67;;;;;;;1.25;87.10;98682.44;4235638;81;21062;-90
2022/02/16 06:08:01;;;;;;;239.90;115.45;;;;;;;1.26;87.26;98672.68;4245290;82;21027;-89
2022/02/16 06:14:03;;;;;;;236.92;116.97;;;;;;;1.29;87.61;98674.73;4255097;82;21047;-89
2022/02/16 06:20:07;;;;;;;234.77;115.95;;;;;;;1.30;87.74;98675.53;4307613;81;21542;-90
2022/02/16 06:26:09;;;;;;;235.93;115.72;;;;;;;1.29;87.89;98678.78;4303445;81;21565;-90
2022/02/16 06:32:11;;;;;;;203.90;99.70;;;;;;;1.30;88.04;98682.27;4301984;81;21041;-90
2022/02/16 06:38:14;;;;;;;215.87;103.02;;;;;;;1.33;87.25;98677.00;4298272;81;22174;-89
2022/02/16 06:44:16;;;;;;;219.53;110.40;;;;;;;1.36;88.07;98660.75;4304534;81;21018;-89
2022/02/16 06:50:18;;;;;;;218.82;107.90;;;;;;;1.44;88.64;98652.61;4285777;81;21104;-90
2022/02/16 06:56:23;;;;;;;191.90;98.37;;;;;;;1.52;88.79;98649.09;4304826;81;21551;-89
2022/02/16 07:02:48;;;;;;;200.38;102.65;;;;;;;1.58;88.67;98642.98;4226485;81;21558;-92
2022/02/16 07:09:07;;;;;;;195.07;100.60;;;;;;;1.70;89.36;98634.97;4320943;81;21035;-90
2022/02/16 07:15:13;;;;;;;171.65;87.53;;;;;;;1.85;89.55;98622.26;4303431;81;21066;-89
2022/02/16 07:21:18;;;;;;;191.88;98.58;;;;;;;2.00;89.66;98607.41;4324592;81;21086;-90
2022/02/16 07:27:20;;;;;;;120.08;58.80;;;;;;;2.21;90.08;98592.02;4266145;81;21055;-90
2022/02/16 07:33:21;;;;;;;77.62;40.60;;;;;;;2.58;89.91;98581.05;4293267;80;21487;-89
2022/02/16 07:39:27;;;;;;;75.60;37.58;;;;;;;3.14;90.57;98580.29;4294541;81;21041;-90
2022/02/16 07:45:28;;;;;;;60.92;32.42;;;;;;;3.44;90.91;98582.78;4287206;81;21641;-90
2022/02/16 07:51:29;;;;;;;57.10;30.48;;;;;;;3.71;90.67;98591.59;4306439;81;21011;-89
2022/02/16 07:57:48;;;;;;;59.67;31.23;;;;;;;4.15;91.21;98582.50;4299994;81;21564;-89
2022/02/16 08:03:50;;;;;;;62.08;31.55;;;;;;;4.54;91.07;98584.41;4267539;81;21053;-89
2022/02/16 08:09:53;;;;;;;57.33;31.35;;;;;;;5.01;90.37;98571.75;4263607;81;21066;-90
2022/02/16 08:15:56;;;;;;;52.20;28.35;;;;;;;5.27;90.19;98573.93;4236184;81;21912;-89
2022/02/16 08:21:58;;;;;;;45.93;27.13;;;;;;;5.58;89.92;98571.20;4266281;80;21939;-90
2022/02/16 08:28:02;;;;;;;41.53;23.32;;;;;;;6.10;89.56;98558.88;4260258;81;21054;-89
2022/02/16 08:34:03;;;;;;;37.83;22.58;;;;;;;6.90;89.26;98546.68;4261360;82;21038;-90
2022/02/16 08:40:07;;;;;;;34.85;21.05;;;;;;;7.68;88.85;98543.31;4279039;81;21034;-91
2022/02/16 08:46:09;;;;;;;34.90;18.52;;;;;;;8.52;88.39;98535.53;4264281;81;21073;-91
2022/02/16 08:52:12;;;;;;;31.68;17.57;;;;;;;8.89;86.85;98533.03;4270189;82;21073;-90
2022/02/16 08:58:13;;;;;;;26.70;16.57;;;;;;;9.10;85.75;98518.78;4267866;82;20992;-90
2022/02/16 09:04:15;;;;;;;25.12;14.95;;;;;;;9.74;83.80;98509.92;4292619;81;21031;-91
2022/02/16 09:10:17;;;;;;;20.55;12.98;;;;;;;10.23;80.61;98497.14;4295327;81;21618;-91
2022/02/16 09:16:20;;;;;;;18.27;11.15;;;;;;;10.92;79.79;98493.06;4256002;80;21029;-91
2022/02/16 09:22:27;;;;;;;17.62;11.95;;;;;;;11.48;73.10;98495.06;4275373;81;21018;-92
2022/02/16 09:28:37;;;;;;;18.65;11.43;;;;;;;11.41;75.24;98488.20;4255054;80;21702;-90
2022/02/16 09:34:48;;;;;;;24.20;12.90;;;;;;;10.46;74.19;98483.97;4266597;82;21121;-90
2022/02/16 09:40:52;;;;;;;18.65;11.30;;;;;;;10.02;74.31;98481.98;4289031;81;21460;-91
2022/02/16 09:46:54;;;;;;;18.98;11.22;;;;;;;9.78;73.63;98474.42;4298090;80;21033;-92
2022/02/16 09:52:58;;;;;;;20.25;12.13;;;;;;;9.58;69.59;98471.77;4290418;81;21055;-91
2022/02/16 09:59:02;;;;;;;16.57;9.63;;;;;;;9.42;67.82;98458.38;4288478;81;21661;-90
2022/02/16 10:05:09;;;;;;;13.83;7.30;;;;;;;9.29;68.69;98442.88;4297286;80;21063;-91
2022/02/16 10:11:18;;;;;;;12.00;7.08;;;;;;;9.40;65.53;98441.02;4295328;81;21578;-91
2022/02/16 10:17:25;;;;;;;10.10;5.97;;;;;;;9.60;68.06;98424.36;4270744;82;21039;-90
2022/02/16 10:23:44;;;;;;;10.13;4.60;;;;;;;9.76;66.08;98395.53;4307894;81;21057;-91
2022/02/16 10:29:49;;;;;;;6.85;4.35;;;;;;;9.86;58.15;98380.35;4330111;81;21545;-92
2022/02/16 10:36:08;;;;;;;6.80;4.30;;;;;;;10.09;61.97;98370.70;4336084;81;21065;-92
2022/02/16 10:42:12;;;;;;;13.50;5.35;;;;;;;11.32;56.96;98371.37;4340736;79;21091;-92
2022/02/16 10:48:22;;;;;;;6.03;3.77;;;;;;;12.47;56.88;98347.59;4339252;81;21518;-91
2022/02/16 10:54:32;;;;;;;5.10;3.05;;;;;;;13.03;59.74;98327.14;4310295;81;21042;-90
2022/02/16 11:00:44;;;;;;;9.10;3.02;;;;;;;13.39;58.58;98322.09;4315352;79;21045;-90
2022/02/16 11:06:49;;;;;;;6.58;3.40;;;;;;;14.07;58.10;98301.59;4322437;80;194830;-91
2022/02/16 11:12:54;;;;;;;6.80;3.52;;;;;;;14.20;56.25;98282.71;4388533;80;21020;-90
2022/02/16 11:19:03;;;;;;;7.72;3.50;;;;;;;14.37;50.72;98275.42;4367838;78;21058;-90
2022/02/16 11:25:34;;;;;;;4.12;2.67;;;;;;;14.57;54.60;98257.59;4330807;80;21054;-91
2022/02/16 11:31:38;;;;;;;5.20;2.80;;;;;;;14.94;50.18;98242.20;4346920;80;20990;-92
2022/02/16 11:37:57;;;;;;;3.50;2.40;;;;;;;15.29;53.25;98228.52;4352764;80;21573;-90
2022/02/16 11:44:06;;;;;;;3.75;2.10;;;;;;;15.12;45.26;98214.48;4361309;80;21010;-92
2022/02/16 11:50:17;;;;;;;4.03;2.40;;;;;;;14.61;43.26;98213.64;4362796;80;21078;-92
2022/02/16 11:56:23;;;;;;;3.95;2.20;;;;;;;14.15;42.77;98198.47;4355466;80;21063;-92
2022/02/16 12:02:27;;;;;;;3.83;1.77;;;;;;;14.02;45.13;98185.88;4362183;80;21085;-92
2022/02/16 12:08:48;;;;;;;3.52;2.25;;;;;;;13.73;41.38;98154.48;4307711;80;21050;-92
2022/02/16 12:14:56;;;;;;;3.90;1.82;;;;;;;13.36;42.96;98149.73;4368313;79;21027;-92
2022/02/16 12:21:00;;;;;;;3.77;2.40;;;;;;;13.17;43.74;98141.52;4340819;80;21478;-91
2022/02/16 12:27:13;;;;;;;4.03;1.77;;;;;;;12.90;40.85;98126.92;4324724;81;21053;-92
2022/02/16 12:33:23;;;;;;;2.33;1.60;;;;;;;12.75;39.31;98119.27;4364333;80;21041;-91
2022/02/16 12:39:39;;;;;;;4.97;1.90;;;;;;;12.62;39.75;98100.55;4362609;80;21542;-92
2022/02/16 12:45:43;;;;;;;6.90;1.90;;;;;;;12.62;41.77;98092.93;4362066;80;21033;-92
2022/02/16 12:51:49;;;;;;;6.47;1.77;;;;;;;12.58;41.74;98077.08;4355607;80;21092;-91
2022/02/16 12:57:57;;;;;;;5.08;2.15;;;;;;;12.45;41.65;98082.31;4347206;80;21053;-92
2022/02/16 13:04:11;;;;;;;8.48;2.92;;;;;;;12.24;39.89;98077.65;4357077;80;21040;-92
2022/02/16 13:10:21;;;;;;;4.87;2.65;;;;;;;12.14;42.14;98073.03;4374051;80;21523;-91
2022/02/16 13:16:25;;;;;;;11.18;3.25;;;;;;;11.97;41.80;98072.61;4339812;80;21009;-90
2022/02/16 13:22:34;;;;;;;4.20;2.62;;;;;;;11.69;41.84;98076.39;4367427;80;21025;-91
2022/02/16 13:28:37;;;;;;;9.45;3.52;;;;;;;11.64;42.00;98072.70;4368315;80;21050;-92
2022/02/16 13:34:49;;;;;;;11.85;3.60;;;;;;;11.68;41.92;98063.84;4359025;80;21069;-92
2022/02/16 13:41:08;;;;;;;9.53;4.08;;;;;;;11.85;42.08;98072.54;4337215;79;21093;-91
2022/02/16 13:47:21;;;;;;;15.65;4.40;;;;;;;11.82;40.34;98062.97;4362616;79;21011;-91
2022/02/16 13:53:34;;;;;;;12.85;3.92;;;;;;;11.74;41.56;98054.03;4339550;80;21025;-90
2022/02/16 14:00:09;;;;;;;7.50;3.37;;;;;;;11.65;41.48;98041.97;4345908;80;21093;-91
2022/02/16 14:06:14;;;;;;;9.40;4.30;;;;;;;11.42;41.32;98038.38;4355727;80;21021;-91
2022/02/16 14:12:16;;;;;;;5.25;3.33;;;;;;;11.13;41.27;98019.98;4357528;80;21047;-90
2022/02/16 14:18:20;;;;;;;6.80;3.60;;;;;;;10.90;39.44;98014.85;4370659;80;21028;-92
2022/02/16 14:24:29;;;;;;;4.62;3.40;;;;;;;10.68;38.88;97994.27;4311611;80;21583;-91
2022/02/16 14:30:32;;;;;;;8.53;4.42;;;;;;;10.44;38.95;97980.11;4310143;81;21061;-91
2022/02/16 14:36:39;;;;;;;10.82;4.87;;;;;;;10.33;39.40;97976.06;4310659;81;21600;-91
2022/02/16 14:42:46;;;;;;;7.17;4.30;;;;;;;10.21;39.73;97966.15;4310800;81;21003;-91
2022/02/16 14:48:49;;;;;;;7.87;4.20;;;;;;;9.96;40.09;97962.69;4308698;81;21881;-90
2022/02/16 14:54:52;;;;;;;7.85;4.28;;;;;;;9.78;40.53;97961.94;4313000;81;21029;-91
2022/02/16 15:00:54;;;;;;;7.25;4.47;;;;;;;9.66;41.28;97952.80;4313385;81;21071;-91
2022/02/16 15:06:55;;;;;;;8.60;4.50;;;;;;;9.45;41.91;97942.11;4315300;81;21045;-91
2022/02/16 15:12:58;;;;;;;8.13;4.00;;;;;;;9.43;42.38;97913.60;4315820;81;21003;-91
2022/02/16 15:19:00;;;;;;;6.78;3.65;;;;;;;9.26;42.53;97893.35;4313752;80;21680;-90
2022/02/16 15:25:08;;;;;;;6.30;3.37;;;;;;;9.13;42.58;97887.33;4361131;80;21079;-90
2022/02/16 15:31:10;;;;;;;6.62;2.80;;;;;;;9.01;42.21;97878.95;4358037;80;21006;-90
2022/02/16 15:37:12;;;;;;;7.03;3.45;;;;;;;8.94;42.57;97869.38;4265011;82;20974;-91
2022/02/16 15:43:14;;;;;;;5.78;3.27;;;;;;;8.89;42.52;97857.52;4288611;81;21865;-90
2022/02/16 15:49:20;;;;;;;5.12;2.75;;;;;;;8.73;43.28;97861.78;4287355;81;21554;-90
2022/02/16 15:55:22;;;;;;;6.42;3.02;;;;;;;8.63;43.61;97852.42;4269606;81;21061;-90
2022/02/16 16:01:26;;;;;;;5.72;3.10;;;;;;;8.50;44.02;97842.30;4290858;82;22049;-90
2022/02/16 16:07:27;;;;;;;6.05;3.25;;;;;;;8.48;44.53;97843.27;4286979;81;21026;-91
2022/02/16 16:13:29;;;;;;;6.20;3.25;;;;;;;8.32;44.98;97845.56;4364218;80;20986;-90
2022/02/16 16:19:31;;;;;;;12.37;4.70;;;;;;;8.19;45.20;97816.50;4355188;80;21093;-90
2022/02/16 16:25:38;;;;;;;11.68;5.95;;;;;;;8.18;45.10;97801.90;4363896;79;21039;-90
2022/02/16 16:31:41;;;;;;;10.78;5.47;;;;;;;8.21;44.66;97774.65;4358706;80;21281;-90
2022/02/16 16:37:44;;;;;;;9.68;4.92;;;;;;;8.21;44.75;97773.28;4363612;80;21557;-89
2022/02/16 16:43:48;;;;;;;9.80;5.33;;;;;;;8.16;45.03;97771.55;4361976;80;21019;-90
2022/02/16 16:49:55;;;;;;;14.15;6.25;;;;;;;8.07;45.57;97785.53;4374773;79;21012;-89
2022/02/16 16:55:57;;;;;;;20.55;9.15;;;;;;;7.90;45.92;97770.72;4292162;81;21073;-87
2022/02/16 17:02:05;;;;;;;18.50;8.50;;;;;;;7.69;46.42;97770.66;4200692;83;21075;-90
2022/02/16 17:08:07;;;;;;;17.05;7.80;;;;;;;7.54;46.59;97779.17;4292700;81;21077;-90
2022/02/16 17:14:09;;;;;;;10.70;5.53;;;;;;;7.46;47.00;97777.58;4289028;81;21038;-90
2022/02/16 17:20:13;;;;;;;11.97;5.65;;;;;;;7.35;47.22;97787.64;4376173;80;21122;-90
2022/02/16 17:26:16;;;;;;;10.72;4.42;;;;;;;7.40;47.73;97779.11;4388707;80;21016;-90
2022/02/16 17:32:17;;;;;;;6.65;3.35;;;;;;;7.58;48.14;97771.20;4380184;80;21538;-89
2022/02/16 17:38:19;;;;;;;7.55;3.33;;;;;;;7.64;48.47;97760.73;4379902;80;21049;-91
2022/02/16 17:50:41;;;;;;;10.53;3.12;;;;;;;7.77;49.28;97748.30;4376911;80;21064;-90
2022/02/16 17:56:44;;;;;;;6.37;3.12;;;;;;;7.94;49.77;97722.45;4370862;80;21084;-90
2022/02/16 18:02:49;;;;;;;8.40;3.70;;;;;;;7.94;51.31;97732.56;4337976;80;21015;-90
2022/02/16 18:08:56;;;;;;;6.08;3.02;;;;;;;7.88;50.75;97709.59;4362992;80;21943;-90
2022/02/16 18:14:58;;;;;;;4.65;2.35;;;;;;;7.91;51.09;97717.78;4387144;80;21039;-91
2022/02/16 18:20:59;;;;;;;5.90;3.42;;;;;;;7.79;51.57;97716.01;4276253;81;21109;-90
2022/02/16 18:27:02;;;;;;;5.45;2.92;;;;;;;7.81;52.39;97717.77;4352996;80;21014;-90
2022/02/16 18:33:04;;;;;;;6.12;3.60;;;;;;;7.83;52.45;97709.39;4343405;80;21024;-90
2022/02/16 18:39:07;;;;;;;6.92;4.15;;;;;;;7.87;53.12;97712.92;4345660;80;21056;-91
2022/02/16 18:45:09;;;;;;;5.37;3.90;;;;;;;8.01;54.32;97699.87;4350428;80;21061;-91
2022/02/16 18:51:14;;;;;;;8.83;5.33;;;;;;;8.07;55.35;97701.05;4236384;79;9999879;-90
2022/02/16 18:57:15;;;;;;;6.08;4.28;;;;;;;8.07;55.35;97701.05;4355032;80;21081;-90
2022/02/16 19:03:21;;;;;;;5.72;3.87;;;;;;;8.15;55.58;97697.16;4351174;80;21041;-90
2022/02/16 19:09:26;;;;;;;5.97;3.80;;;;;;;8.18;56.39;97685.47;4253572;82;21322;-91
2022/02/16 19:15:29;;;;;;;9.28;4.47;;;;;;;8.24;56.42;97678.48;4289408;82;21313;-91
2022/02/16 19:21:34;;;;;;;6.22;3.08;;;;;;;8.21;57.40;97701.62;4342761;79;21036;-90
2022/02/16 19:27:40;;;;;;;6.95;3.60;;;;;;;8.23;57.06;97721.13;4311336;81;21655;-91
2022/02/16 19:33:49;;;;;;;5.20;2.77;;;;;;;8.25;56.83;97724.25;4300489;81;21578;-91
2022/02/16 19:39:52;;;;;;;5.97;2.80;;;;;;;8.36;57.49;97710.82;4301514;81;21085;-91
2022/02/16 19:45:58;;;;;;;6.42;3.20;;;;;;;8.40;57.69;97703.41;4305854;81;21089;-91
2022/02/16 19:52:06;;;;;;;5.45;2.83;;;;;;;8.51;57.46;97710.99;4304411;81;21604;-91
2022/02/16 19:58:17;;;;;;;6.87;2.52;;;;;;;8.55;57.22;97715.84;4306187;81;21081;-91
2022/02/16 20:04:19;;;;;;;4.37;2.30;;;;;;;8.47;57.35;97732.02;4302312;81;21064;-90
2022/02/16 20:10:22;;;;;;;4.60;2.33;;;;;;;8.44;57.44;97734.16;4306832;81;21049;-88
2022/02/16 20:16:32;;;;;;;6.17;3.05;;;;;;;8.35;57.59;97710.61;4303207;81;22067;-89
2022/02/16 20:22:42;;;;;;;6.33;3.10;;;;;;;8.22;58.53;97669.91;4291885;81;22190;-91
2022/02/16 20:28:46;;;;;;;7.23;2.60;;;;;;;8.06;59.03;97664.06;4292450;81;21106;-91
2022/02/16 20:34:50;;;;;;;5.35;2.42;;;;;;;7.91;59.79;97674.75;4286957;80;21130;-90
2022/02/16 20:40:54;;;;;;;6.12;2.80;;;;;;;7.91;59.25;97670.09;4293355;81;21143;-91
2022/02/16 20:46:57;;;;;;;5.60;2.87;;;;;;;8.00;60.10;97663.66;4287058;81;20991;-90
2022/02/16 20:53:03;;;;;;;4.65;2.37;;;;;;;7.90;60.13;97649.47;4273718;81;21068;-90
2022/02/16 20:59:10;;;;;;;6.62;3.05;;;;;;;7.91;61.18;97616.95;4279708;81;21060;-90
2022/02/16 21:05:13;;;;;;;5.85;2.98;;;;;;;7.90;61.13;97590.10;4281155;81;21640;-90
2022/02/16 21:11:20;;;;;;;6.65;3.17;;;;;;;7.87;61.93;97597.12;4294681;81;21095;-90
2022/02/16 21:17:25;;;;;;;5.83;2.62;;;;;;;7.78;61.88;97581.73;4286006;81;20989;-91
2022/02/16 21:23:29;;;;;;;5.97;2.70;;;;;;;7.60;62.30;97568.72;4327453;80;20999;-90
2022/02/16 21:29:32;;;;;;;4.90;2.40;;;;;;;7.63;62.34;97571.23;4360015;80;22204;-91
2022/02/16 21:35:35;;;;;;;5.20;2.87;;;;;;;7.76;63.07;97567.75;4364364;79;21084;-91
2022/02/16 21:41:39;;;;;;;5.60;2.00;;;;;;;7.93;63.26;97562.86;4370861;80;21060;-91
2022/02/16 21:47:47;;;;;;;6.70;2.50;;;;;;;8.05;63.29;97543.19;4366666;80;21074;-90
2022/02/16 21:53:51;;;;;;;5.28;2.45;;;;;;;8.09;63.17;97531.67;4374199;79;21123;-89
2022/02/16 21:59:55;;;;;;;6.12;2.15;;;;;;;8.07;63.16;97532.64;4356441;80;21066;-89
2022/02/16 22:05:56;;;;;;;3.12;1.67;;;;;;;7.97;63.62;97515.94;4371558;80;21049;-89
2022/02/16 22:12:32;;;;;;;5.60;2.20;;;;;;;7.95;64.22;97524.32;4339470;80;21067;-90
2022/02/16 22:18:11;;;;;;;3.20;1.95;;;;;;;7.96;64.37;97523.14;4355604;80;21618;-90
2022/02/16 22:24:13;;;;;;;4.50;1.98;;;;;;;8.06;65.04;97510.09;4367075;80;20990;-91
2022/02/16 22:30:20;;;;;;;4.60;1.82;;;;;;;8.16;64.99;97492.16;4354635;80;21031;-90
2022/02/16 22:36:21;;;;;;;2.70;1.57;;;;;;;8.28;65.15;97459.02;4328368;80;21088;-91
2022/02/16 22:42:26;;;;;;;3.67;1.85;;;;;;;8.30;65.45;97422.61;4342725;80;21002;-90
2022/02/16 22:48:27;;;;;;;3.15;1.30;;;;;;;8.15;65.54;97416.98;4338908;80;21033;-92
2022/02/16 22:54:31;;;;;;;3.65;1.70;;;;;;;8.16;65.81;97413.11;4350928;80;21179;-91
2022/02/16 23:00:50;;;;;;;2.42;1.37;;;;;;;8.06;65.73;97424.81;4328248;80;21057;-90
2022/02/16 23:13:17;;;;;;;1.90;1.02;;;;;;;8.12;66.25;97402.79;4282234;82;21064;-91
2022/02/16 23:19:24;;;;;;;1.35;1.02;;;;;;;8.20;66.58;97390.69;4253321;83;21055;-92
2022/02/16 23:25:28;;;;;;;2.50;0.80;;;;;;;8.31;66.47;97359.50;4344532;80;21092;-89
2022/02/16 23:31:37;;;;;;;2.22;0.90;;;;;;;8.42;66.75;97340.34;4356696;80;21726;-91
2022/02/16 23:37:39;;;;;;;1.98;0.90;;;;;;;8.48;66.36;97334.65;4348062;80;21044;-91
2022/02/16 23:43:43;;;;;;;3.10;1.07;;;;;;;8.58;66.33;97322.29;4346998;80;21535;-92
2022/02/16 23:49:50;;;;;;;1.90;0.85;;;;;;;8.61;66.31;97309.23;4357162;80;21022;-91
2022/02/16 23:55:52;;;;;;;2.27;0.60;;;;;;;8.64;66.58;97291.28;4335616;80;21042;-92
